Time;durP1;ratioP1;P1;durP2;ratioP2;P2;SDS_P1;SDS_P2;PMS_P1;PMS_P2;Temp;Humidity;BMP_temperature;BMP_pressure;BME280_temperature;BME280_humidity;BME280_pressure;Samples;Min_cycle;Max_cycle;Signal;HPM_P1;HPM_P2
2022/10/16 05:03:34;;;;;;;3.92;1.70;;;15.00;99.90;;;;;;6179331;23;20072;-70
2022/10/16 05:06:01;;;;;;;3.47;1.63;;;15.00;99.90;;;;;;6192477;23;20013;-69
2022/10/16 05:08:26;;;;;;;6.28;1.48;;;15.00;99.90;;;;;;6193778;23;19997;-70
2022/10/16 05:10:52;;;;;;;4.22;1.90;;;15.00;99.90;;;;;;6217775;23;20051;-71
2022/10/16 05:13:18;;;;;;;7.78;2.30;;;15.00;99.90;;;;;;6193147;23;20055;-72
2022/10/16 05:15:48;;;;;;;9.60;2.55;;;15.00;99.90;;;;;;6193877;23;20023;-71
2022/10/16 05:18:14;;;;;;;5.70;2.17;;;14.90;99.90;;;;;;6192748;23;20056;-70
2022/10/16 05:20:39;;;;;;;7.97;2.50;;;14.90;99.90;;;;;;6193412;23;19993;-68
2022/10/16 05:23:05;;;;;;;4.50;2.00;;;14.90;99.90;;;;;;6193352;23;20052;-72
2022/10/16 05:25:31;;;;;;;4.25;2.15;;;14.90;99.90;;;;;;6194024;23;20005;-70
2022/10/16 05:27:56;;;;;;;4.97;2.38;;;14.80;99.90;;;;;;6193902;23;20005;-69
2022/10/16 05:30:22;;;;;;;6.13;2.03;;;14.80;99.90;;;;;;6193043;23;19993;-71
2022/10/16 05:32:49;;;;;;;6.57;2.20;;;14.80;99.90;;;;;;6193171;23;20001;-69
2022/10/16 05:35:15;;;;;;;4.85;1.63;;;14.80;99.90;;;;;;6192550;23;20052;-69
2022/10/16 05:37:41;;;;;;;4.95;1.95;;;14.80;99.90;;;;;;6193350;23;20014;-71
2022/10/16 05:40:08;;;;;;;4.30;1.92;;;14.70;99.90;;;;;;6192721;23;20048;-71
2022/10/16 05:42:35;;;;;;;3.63;1.92;;;14.70;99.90;;;;;;6193221;23;20012;-72
2022/10/16 05:45:00;;;;;;;6.93;2.22;;;14.60;99.90;;;;;;6193284;23;20005;-69
2022/10/16 05:47:26;;;;;;;4.20;1.90;;;14.60;99.90;;;;;;6192735;23;20068;-71
2022/10/16 05:49:53;;;;;;;4.18;1.60;;;14.60;99.90;;;;;;6193474;23;19989;-69
2022/10/16 05:52:18;;;;;;;5.03;1.83;;;14.60;99.90;;;;;;6192828;23;20001;-69
2022/10/16 05:54:50;;;;;;;3.70;2.10;;;14.70;99.90;;;;;;6193482;23;20028;-70
2022/10/16 05:57:16;;;;;;;4.65;1.70;;;14.70;99.90;;;;;;6192937;23;20031;-69
2022/10/16 05:59:42;;;;;;;5.28;1.50;;;14.80;99.90;;;;;;6192863;23;20009;-71
2022/10/16 06:02:12;;;;;;;3.72;1.48;;;14.80;99.90;;;;;;6202519;23;20068;-69
2022/10/16 06:04:38;;;;;;;5.60;1.48;;;14.90;99.90;;;;;;6223735;23;20016;-70
2022/10/16 06:07:04;;;;;;;5.30;1.60;;;14.90;99.90;;;;;;6223797;23;20016;-71
2022/10/16 06:09:35;;;;;;;3.92;1.60;;;14.90;99.90;;;;;;6196485;23;20001;-69
2022/10/16 06:12:01;;;;;;;7.03;1.85;;;15.00;99.90;;;;;;6223390;23;20039;-71
2022/10/16 06:14:27;;;;;;;5.63;1.80;;;15.00;99.90;;;;;;6222787;23;20000;-71
2022/10/16 06:16:53;;;;;;;4.40;1.55;;;15.00;99.90;;;;;;6223278;23;20028;-70
2022/10/16 06:19:18;;;;;;;4.05;1.42;;;15.10;99.90;;;;;;6224552;23;20001;-70
2022/10/16 06:21:44;;;;;;;3.78;1.48;;;15.10;99.90;;;;;;6225268;23;20009;-71
2022/10/16 06:24:10;;;;;;;4.78;1.83;;;15.10;99.90;;;;;;6224675;23;20214;-69
2022/10/16 06:26:37;;;;;;;15.20;9.40;;;15.20;99.90;;;;;;6224945;23;20055;-72
2022/10/16 06:29:02;;;;;;;9.43;7.07;;;15.20;99.90;;;;;;6225739;23;20047;-70
2022/10/16 06:31:30;;;;;;;4.93;3.08;;;15.30;99.90;;;;;;6224523;23;20008;-71
2022/10/16 06:33:57;;;;;;;41.25;30.73;;;15.30;99.90;;;;;;6225388;23;20163;-70
2022/10/16 06:36:24;;;;;;;14.38;11.25;;;15.30;99.90;;;;;;6224058;23;20000;-71
2022/10/16 06:38:50;;;;;;;5.75;3.17;;;15.30;99.90;;;;;;6225591;23;20230;-71
2022/10/16 06:41:19;;;;;;;4.55;2.00;;;15.30;99.90;;;;;;6223694;23;20336;-72
2022/10/16 06:43:45;;;;;;;5.63;2.03;;;15.40;99.90;;;;;;6225083;23;20024;-71
2022/10/16 06:46:13;;;;;;;4.97;1.65;;;15.50;99.90;;;;;;6224387;23;20005;-71
2022/10/16 06:48:38;;;;;;;5.90;1.90;;;15.50;99.90;;;;;;6225022;23;19988;-71
2022/10/16 06:51:08;;;;;;;4.07;1.67;;;15.60;99.90;;;;;;6225394;23;20026;-70
2022/10/16 06:53:35;;;;;;;53.97;39.15;;;15.70;99.90;;;;;;6224039;23;20000;-71
2022/10/16 06:56:33;;;;;;;26.90;20.35;;;15.80;99.90;;;;;;6226041;23;20000;-72
2022/10/16 06:58:59;;;;;;;7.97;3.42;;;15.80;99.90;;;;;;6205581;23;20009;-70
2022/10/16 07:01:25;;;;;;;10.10;2.83;;;15.80;99.90;;;;;;6224089;23;19992;-72
2022/10/16 07:03:51;;;;;;;6.35;1.92;;;15.80;99.90;;;;;;6224768;23;20009;-73
2022/10/16 07:06:20;;;;;;;5.32;2.22;;;15.90;99.90;;;;;;6224422;23;20322;-69
2022/10/16 07:08:47;;;;;;;8.30;2.05;;;16.00;99.90;;;;;;6225111;23;20076;-72
2022/10/16 07:11:15;;;;;;;3.80;1.70;;;16.10;99.90;;;;;;6224997;23;20008;-70
2022/10/16 07:13:42;;;;;;;5.15;1.63;;;16.20;99.90;;;;;;6225325;23;20008;-70
2022/10/16 07:16:16;;;;;;;4.80;1.67;;;16.30;99.90;;;;;;6224706;23;20011;-71
2022/10/16 07:18:45;;;;;;;4.22;1.70;;;16.50;99.90;;;;;;6225268;23;20000;-71
2022/10/16 07:21:20;;;;;;;5.55;1.60;;;16.60;99.90;;;;;;6225264;23;20152;-72
2022/10/16 07:23:53;;;;;;;4.55;1.67;;;16.60;99.90;;;;;;6225016;23;20052;-72
2022/10/16 07:26:22;;;;;;;3.65;1.23;;;16.70;99.90;;;;;;6224160;23;20221;-70
2022/10/16 07:28:49;;;;;;;4.35;1.50;;;16.70;99.90;;;;;;6224602;23;20001;-70
2022/10/16 07:31:16;;;;;;;4.18;1.67;;;16.70;99.90;;;;;;6223865;23;20012;-73
2022/10/16 07:33:44;;;;;;;3.35;1.20;;;16.70;99.90;;;;;;6224858;23;20322;-70
2022/10/16 07:36:10;;;;;;;3.70;1.85;;;16.70;99.90;;;;;;6224810;23;20060;-74
2022/10/16 07:38:36;;;;;;;5.18;1.60;;;16.60;99.90;;;;;;6224202;23;20321;-71
2022/10/16 07:41:07;;;;;;;4.18;1.70;;;16.60;99.90;;;;;;6224753;23;20009;-73
2022/10/16 07:43:33;;;;;;;5.25;1.65;;;16.60;99.90;;;;;;6224391;23;20039;-70
2022/10/16 07:45:59;;;;;;;5.97;1.50;;;16.70;99.90;;;;;;6196622;23;20300;-72
2022/10/16 07:48:30;;;;;;;4.57;1.80;;;16.80;99.90;;;;;;6222706;23;20028;-70
2022/10/16 07:51:05;;;;;;;7.97;1.80;;;16.90;99.90;;;;;;6223533;23;20096;-71
2022/10/16 07:53:31;;;;;;;5.18;1.60;;;16.90;99.90;;;;;;6196010;23;20286;-71
2022/10/16 07:56:05;;;;;;;5.05;1.40;;;17.00;99.90;;;;;;6223319;23;20000;-70
2022/10/16 07:58:32;;;;;;;2.85;1.40;;;17.10;99.90;;;;;;6221639;23;20052;-71
2022/10/16 08:00:58;;;;;;;4.30;1.30;;;17.10;99.90;;;;;;6223072;23;20067;-72
2022/10/16 08:03:24;;;;;;;3.22;1.30;;;17.20;99.90;;;;;;6222386;23;20067;-73
2022/10/16 08:05:51;;;;;;;4.07;1.67;;;17.30;99.90;;;;;;6223788;23;20000;-71
2022/10/16 08:08:18;;;;;;;5.30;1.80;;;17.40;99.90;;;;;;6222850;23;20005;-70
2022/10/16 08:10:45;;;;;;;4.15;1.40;;;17.50;99.90;;;;;;6221797;23;20065;-73
2022/10/16 08:13:10;;;;;;;4.18;2.00;;;17.60;99.90;;;;;;6223267;23;20047;-71
2022/10/16 08:15:36;;;;;;;2.83;1.10;;;17.70;99.90;;;;;;6222183;23;20294;-72
2022/10/16 08:18:04;;;;;;;4.57;1.80;;;17.80;99.90;;;;;;6222941;23;20020;-70
2022/10/16 08:20:31;;;;;;;3.40;1.48;;;18.00;99.90;;;;;;6222837;23;20039;-71
2022/10/16 08:22:58;;;;;;;31.60;16.30;;;18.20;99.90;;;;;;6222501;23;20043;-72
2022/10/16 08:25:24;;;;;;;2.72;1.60;;;18.30;99.90;;;;;;6222319;23;20027;-72
2022/10/16 08:27:50;;;;;;;4.88;1.90;;;18.50;99.90;;;;;;6222584;23;20093;-71
2022/10/16 08:30:18;;;;;;;2.50;1.05;;;18.70;99.90;;;;;;6222153;23;20188;-71
2022/10/16 08:32:43;;;;;;;7.68;3.28;;;19.00;99.90;;;;;;6222657;23;19989;-72
2022/10/16 08:35:10;;;;;;;31.80;16.60;;;19.10;99.90;;;;;;6223252;23;20238;-71
2022/10/16 08:37:37;;;;;;;13.32;7.20;;;19.50;99.90;;;;;;6221779;23;20028;-71
2022/10/16 08:40:03;;;;;;;4.97;2.30;;;19.70;99.90;;;;;;6222289;23;19988;-71
2022/10/16 08:42:35;;;;;;;3.30;1.60;;;19.80;99.90;;;;;;6221915;23;20008;-70
2022/10/16 08:45:29;;;;;;;4.57;1.20;;;19.90;99.90;;;;;;6222618;23;20023;-71
2022/10/16 08:48:01;;;;;;;4.38;1.40;;;19.80;99.90;;;;;;6222276;23;20317;-71
2022/10/16 08:50:31;;;;;;;4.00;1.42;;;19.50;99.90;;;;;;6195434;23;20068;-70
2022/10/16 08:52:58;;;;;;;3.08;1.70;;;19.30;99.90;;;;;;6222789;23;20439;-72
2022/10/16 08:55:36;;;;;;;3.53;1.73;;;19.40;99.90;;;;;;6221554;23;19988;-71
2022/10/16 08:58:17;;;;;;;3.20;1.92;;;19.30;99.90;;;;;;6221841;23;20059;-72
2022/10/16 09:00:49;;;;;;;4.40;1.48;;;19.20;99.90;;;;;;6221650;23;20202;-71
2022/10/16 09:03:40;;;;;;;4.20;1.58;;;19.10;99.90;;;;;;6222007;23;20015;-71
2022/10/16 09:06:20;;;;;;;2.55;1.35;;;19.20;99.90;;;;;;6222536;23;20011;-73
2022/10/16 09:09:08;;;;;;;3.35;1.30;;;19.30;99.90;;;;;;6222326;23;20075;-70
2022/10/16 09:11:52;;;;;;;2.53;1.00;;;19.50;99.90;;;;;;6222147;23;20004;-71
2022/10/16 09:14:52;;;;;;;4.90;1.30;;;19.60;99.90;;;;;;6222003;23;20020;-72
2022/10/16 09:17:56;;;;;;;2.42;1.10;;;19.80;99.90;;;;;;6221597;23;20287;-71
2022/10/16 09:20:31;;;;;;;5.07;1.30;;;20.00;99.90;;;;;;6220904;23;20035;-71
2022/10/16 09:23:18;;;;;;;5.30;1.50;;;20.20;99.90;;;;;;6221853;23;20047;-70
2022/10/16 09:25:48;;;;;;;5.97;1.63;;;20.20;99.90;;;;;;6221876;23;20051;-70
2022/10/16 09:28:14;;;;;;;4.18;1.30;;;20.40;99.90;;;;;;6221978;23;19997;-70
2022/10/16 09:30:40;;;;;;;5.90;1.33;;;20.40;99.90;;;;;;6222189;23;20005;-73
2022/10/16 09:33:07;;;;;;;3.92;1.20;;;20.50;99.90;;;;;;6222231;23;20066;-71
2022/10/16 09:35:47;;;;;;;3.83;1.30;;;20.40;99.90;;;;;;6221327;23;20004;-70
2022/10/16 09:38:42;;;;;;;6.05;1.20;;;20.40;99.90;;;;;;6221791;23;20287;-72
2022/10/16 09:41:22;;;;;;;4.65;1.73;;;20.40;99.90;;;;;;6202277;23;20040;-71
2022/10/16 09:43:52;;;;;;;3.85;1.35;;;20.60;99.90;;;;;;6221903;23;20011;-71
2022/10/16 09:46:33;;;;;;;3.67;1.10;;;20.70;99.90;;;;;;6221770;23;20001;-70
2022/10/16 09:49:22;;;;;;;2.92;1.05;;;20.80;99.90;;;;;;6195624;23;20369;-71
2022/10/16 09:51:48;;;;;;;2.88;1.10;;;20.80;99.90;;;;;;6222017;23;20004;-69
2022/10/16 09:54:19;;;;;;;3.92;1.00;;;21.00;99.90;;;;;;6223886;23;19989;-70
2022/10/16 09:56:49;;;;;;;3.45;1.17;;;21.10;99.90;;;;;;6224965;23;20313;-71
2022/10/16 09:59:20;;;;;;;2.65;0.85;;;21.40;99.90;;;;;;6197797;23;20027;-72
2022/10/16 10:01:51;;;;;;;4.25;1.02;;;21.60;99.90;;;;;;6223540;23;20016;-71
2022/10/16 10:04:21;;;;;;;4.68;0.90;;;21.70;99.90;;;;;;6224857;23;20000;-71
2022/10/16 10:07:03;;;;;;;5.03;1.15;;;21.90;99.90;;;;;;6226466;23;20130;-71
2022/10/16 10:09:38;;;;;;;4.28;1.00;;;22.10;99.90;;;;;;6223725;23;20020;-70
2022/10/16 10:12:06;;;;;;;2.88;0.70;;;22.30;99.90;;;;;;6223694;23;20004;-70
2022/10/16 10:14:38;;;;;;;4.97;0.90;;;22.40;99.90;;;;;;6223564;23;20016;-71
2022/10/16 10:17:06;;;;;;;1.92;0.90;;;22.50;99.90;;;;;;6197341;23;20005;-71
2022/10/16 10:20:03;;;;;;;4.53;1.30;;;22.60;99.90;;;;;;6221509;23;20016;-71
2022/10/16 10:22:48;;;;;;;3.50;0.93;;;22.60;99.90;;;;;;6223039;23;20011;-72
2022/10/16 10:25:13;;;;;;;3.45;0.90;;;22.70;99.90;;;;;;6224170;23;20008;-71
2022/10/16 10:28:10;;;;;;;4.13;0.85;;;22.90;99.90;;;;;;6223114;23;20001;-74
2022/10/16 10:31:00;;;;;;;3.03;0.90;;;23.00;99.90;;;;;;6223226;23;20000;-73
2022/10/16 10:34:03;;;;;;;3.60;1.20;;;23.10;99.90;;;;;;6222593;23;20009;-70
2022/10/16 10:36:39;;;;;;;2.60;0.80;;;23.30;99.90;;;;;;6223053;23;20000;-74
2022/10/16 10:39:08;;;;;;;4.25;0.88;;;23.50;99.90;;;;;;6223931;23;20005;-71
2022/10/16 10:41:39;;;;;;;3.35;0.80;;;23.90;99.90;;;;;;6223483;23;20009;-73
2022/10/16 10:44:11;;;;;;;4.07;1.00;;;24.30;99.90;;;;;;6224105;23;20050;-72
2022/10/16 10:46:57;;;;;;;4.68;0.82;;;24.30;99.90;;;;;;6223722;23;20000;-71
2022/10/16 10:49:26;;;;;;;2.87;1.07;;;24.30;99.50;;;;;;6223657;23;20000;-71
2022/10/16 10:51:51;;;;;;;;;;;24.40;99.70;;;;;;6224133;23;20387;-72
2022/10/16 10:54:46;;;;;;;3.33;1.30;;;24.30;99.50;;;;;;6197339;23;19899;-72
2022/10/16 10:57:41;;;;;;;6.38;0.70;;;24.60;99.20;;;;;;6209454;23;20349;-73
2022/10/16 11:00:26;;;;;;;2.88;1.00;;;25.20;98.40;;;;;;6131332;23;20010;-74
2022/10/16 11:03:23;;;;;;;3.80;0.90;;;25.20;97.80;;;;;;6131431;23;20021;-75
2022/10/16 11:06:10;;;;;;;2.72;0.68;;;25.50;97.70;;;;;;6132052;23;20077;-72
2022/10/16 11:09:17;;;;;;;4.00;1.27;;;26.50;96.50;;;;;;6131662;23;20010;-73
2022/10/16 11:12:18;;;;;;;3.65;0.95;;;27.40;95.70;;;;;;6131301;23;20006;-74
2022/10/16 11:15:28;;;;;;;3.83;0.90;;;28.00;93.80;;;;;;6106493;23;20013;-73
2022/10/16 11:18:11;;;;;;;1.75;0.60;;;28.30;93.10;;;;;;6106121;23;20244;-75
2022/10/16 11:21:12;;;;;;;3.38;0.73;;;28.90;91.50;;;;;;6106459;23;20014;-74
2022/10/16 11:24:00;;;;;;;2.38;0.88;;;29.20;91.10;;;;;;6106195;23;20043;-73
2022/10/16 11:26:31;;;;;;;;;;;29.10;90.20;;;;;;6107170;23;20065;-77
2022/10/16 11:28:59;;;;;;;2.83;0.80;;;29.50;89.40;;;;;;6131734;23;19953;-75
2022/10/16 11:32:06;;;;;;;1.52;0.70;;;30.20;87.30;;;;;;6131051;23;20010;-74
2022/10/16 11:34:38;;;;;;;3.20;1.08;;;30.30;87.30;;;;;;6106283;23;20069;-74
2022/10/16 11:37:11;;;;;;;4.20;1.15;;;30.20;83.40;;;;;;6178099;23;20151;-74
2022/10/16 11:39:39;;;;;;;1.83;0.60;;;30.10;82.90;;;;;;6220072;23;20008;-73
2022/10/16 11:42:21;;;;;;;2.93;0.73;;;30.50;82.30;;;;;;6220741;23;20001;-75
2022/10/16 11:45:04;;;;;;;3.38;0.70;;;31.60;80.30;;;;;;6195227;23;20005;-75
2022/10/16 11:47:35;;;;;;;3.78;1.00;;;32.40;77.30;;;;;;6220516;23;20313;-75
2022/10/16 11:50:10;;;;;;;2.20;1.00;;;32.60;77.40;;;;;;6196550;23;20306;-76
2022/10/16 11:52:59;;;;;;;2.28;0.75;;;33.70;75.30;;;;;;6196363;23;20031;-73
2022/10/16 11:55:37;;;;;;;2.00;0.77;;;35.10;71.80;;;;;;6222472;23;20004;-72
2022/10/16 11:58:11;;;;;;;1.70;0.60;;;35.90;69.10;;;;;;6171793;23;20342;-75
2022/10/16 12:00:43;;;;;;;2.03;0.70;;;36.30;66.60;;;;;;6222582;23;20014;-72
2022/10/16 12:03:41;;;;;;;1.75;0.80;;;36.80;63.90;;;;;;6176922;23;20020;-73
2022/10/16 12:06:26;;;;;;;3.08;0.60;;;37.20;63.00;;;;;;6192211;23;20005;-75
2022/10/16 12:08:53;;;;;;;1.98;0.63;;;37.50;61.80;;;;;;6192957;23;20036;-74
2022/10/16 12:11:33;;;;;;;2.17;0.77;;;37.80;61.30;;;;;;6192636;23;20083;-73
2022/10/16 12:14:11;;;;;;;3.75;0.80;;;37.70;59.70;;;;;;6166953;23;20040;-74
2022/10/16 12:16:58;;;;;;;2.75;0.60;;;36.90;60.20;;;;;;6165747;23;20009;-72
2022/10/16 12:19:26;;;;;;;2.03;0.80;;;36.20;60.20;;;;;;6192445;23;20005;-74
2022/10/16 12:21:55;;;;;;;1.83;0.77;;;35.90;59.30;;;;;;6192639;23;20291;-75
2022/10/16 12:24:37;;;;;;;4.25;0.60;;;35.40;62.80;;;;;;6192725;23;20318;-72
2022/10/16 12:27:06;;;;;;;4.35;1.25;;;35.60;61.60;;;;;;6192645;23;20314;-75
2022/10/16 12:29:44;;;;;;;2.45;0.68;;;35.80;59.70;;;;;;6192104;23;20331;-73
2022/10/16 12:32:39;;;;;;;2.55;0.65;;;35.70;59.80;;;;;;6166190;23;20005;-74
2022/10/16 12:35:18;;;;;;;4.28;0.70;;;36.50;58.50;;;;;;6186172;23;20011;-74
2022/10/16 12:37:45;;;;;;;2.22;1.00;;;35.70;58.90;;;;;;6193200;23;20017;-74
2022/10/16 12:40:32;;;;;;;2.60;1.00;;;35.10;60.50;;;;;;6194061;23;20194;-76
2022/10/16 12:42:58;;;;;;;1.70;0.82;;;34.90;61.70;;;;;;6193928;23;20005;-76
2022/10/16 12:45:26;;;;;;;2.45;0.65;;;35.10;60.60;;;;;;6167543;23;20017;-73
2022/10/16 12:47:54;;;;;;;2.95;0.70;;;35.10;60.90;;;;;;6194039;23;19996;-74
2022/10/16 12:50:28;;;;;;;;;;;35.90;60.60;;;;;;6168197;23;20077;-74
2022/10/16 12:52:54;;;;;;;1.92;0.50;;;36.70;58.90;;;;;;6167976;23;19900;-73
2022/10/16 12:55:22;;;;;;;2.35;0.68;;;37.00;59.10;;;;;;6192513;23;20016;-73
2022/10/16 12:58:06;;;;;;;2.28;0.60;;;37.10;57.70;;;;;;6142062;23;20627;-75
2022/10/16 13:00:57;;;;;;;2.25;0.80;;;36.50;58.20;;;;;;6193090;23;20031;-75
2022/10/16 13:03:50;;;;;;;2.53;0.60;;;35.90;58.60;;;;;;6215047;23;20013;-73
2022/10/16 13:06:27;;;;;;;3.55;1.38;;;34.40;60.50;;;;;;6223781;23;20076;-74
2022/10/16 13:09:27;;;;;;;1.48;0.60;;;33.30;62.00;;;;;;6223239;23;20024;-74
2022/10/16 13:12:17;;;;;;;2.15;1.10;;;32.10;64.60;;;;;;6222722;23;20013;-73
2022/10/16 13:14:55;;;;;;;1.33;0.63;;;31.60;66.10;;;;;;6196834;23;20032;-74
2022/10/16 13:17:49;;;;;;;3.63;0.60;;;31.90;66.90;;;;;;6223874;23;20011;-74
2022/10/16 13:20:22;;;;;;;2.85;0.60;;;33.00;66.80;;;;;;6197045;23;20008;-75
2022/10/16 13:23:00;;;;;;;1.50;0.73;;;33.30;64.00;;;;;;6196487;23;20008;-75
2022/10/16 13:25:45;;;;;;;3.72;1.17;;;33.40;66.10;;;;;;6222395;23;20009;-77
2022/10/16 13:28:12;;;;;;;2.33;0.88;;;32.90;65.60;;;;;;6196910;23;20211;-74
2022/10/16 13:30:41;;;;;;;2.13;0.80;;;32.50;64.80;;;;;;6196263;23;20019;-75
2022/10/16 13:33:23;;;;;;;1.40;0.73;;;31.80;64.90;;;;;;6223337;23;19993;-74
2022/10/16 13:35:54;;;;;;;4.85;0.90;;;31.30;70.30;;;;;;6221277;23;20011;-74
2022/10/16 13:38:23;;;;;;;3.15;0.90;;;30.90;67.60;;;;;;6221630;23;20024;-73
2022/10/16 13:40:50;;;;;;;;;;;30.60;70.90;;;;;;6223063;23;20039;-72
2022/10/16 13:43:18;;;;;;;3.05;1.10;;;30.30;69.50;;;;;;6196528;23;20110;-73
2022/10/16 13:46:13;;;;;;;3.78;1.25;;;30.20;72.40;;;;;;6220842;23;19999;-73
2022/10/16 13:48:39;;;;;;;3.33;1.48;;;30.20;70.40;;;;;;6221840;23;20068;-73
2022/10/16 13:51:10;;;;;;;2.90;1.35;;;29.90;69.20;;;;;;6223245;23;20182;-73
2022/10/16 13:53:36;;;;;;;2.88;1.05;;;30.00;74.10;;;;;;6222271;23;20338;-73
2022/10/16 13:56:05;;;;;;;3.22;1.00;;;30.00;69.40;;;;;;6223264;23;20008;-74
2022/10/16 13:58:30;;;;;;;2.20;0.80;;;30.10;74.30;;;;;;6223403;23;20283;-75
2022/10/16 14:00:59;;;;;;;2.45;1.10;;;30.30;71.10;;;;;;6223233;23;20005;-73
2022/10/16 14:03:27;;;;;;;7.05;1.20;;;30.50;68.50;;;;;;6223150;23;20013;-74
2022/10/16 14:05:55;;;;;;;1.50;0.80;;;30.40;73.50;;;;;;6223025;23;20337;-74
2022/10/16 14:08:23;;;;;;;3.13;1.00;;;30.40;69.80;;;;;;6223260;23;20324;-74
2022/10/16 14:10:54;;;;;;;2.58;0.98;;;30.00;70.90;;;;;;6222375;23;20019;-75
2022/10/16 14:13:52;;;;;;;3.08;1.00;;;29.60;71.50;;;;;;6223405;23;20011;-73
2022/10/16 14:16:27;;;;;;;3.95;1.20;;;29.30;70.70;;;;;;6218647;23;20005;-74
2022/10/16 14:19:02;;;;;;;3.63;1.20;;;28.90;72.40;;;;;;6222704;23;20004;-73
2022/10/16 14:21:28;;;;;;;2.20;1.10;;;28.60;73.80;;;;;;6223432;23;20096;-75
2022/10/16 14:23:55;;;;;;;3.03;0.85;;;28.50;73.10;;;;;;6223139;23;19988;-74
2022/10/16 14:26:23;;;;;;;2.90;1.00;;;28.30;72.80;;;;;;6223072;23;20007;-73
2022/10/16 14:29:03;;;;;;;2.78;0.80;;;28.20;75.20;;;;;;6222802;23;20001;-73
2022/10/16 14:31:31;;;;;;;4.88;1.75;;;28.10;74.00;;;;;;6222968;23;20056;-73
2022/10/16 14:33:58;;;;;;;3.70;1.27;;;28.00;73.70;;;;;;6222903;23;20001;-74
2022/10/16 14:36:25;;;;;;;4.20;2.05;;;28.00;74.50;;;;;;6223987;23;20001;-74
2022/10/16 14:39:19;;;;;;;3.92;1.98;;;27.80;77.70;;;;;;6222099;23;20012;-73
2022/10/16 14:41:47;;;;;;;5.45;2.60;;;27.60;75.10;;;;;;6224818;23;20008;-73
2022/10/16 14:44:14;;;;;;;5.35;3.05;;;27.50;79.10;;;;;;6223578;23;20060;-75
2022/10/16 14:46:42;;;;;;;4.03;2.60;;;27.40;77.90;;;;;;6224776;23;20330;-73
2022/10/16 14:49:11;;;;;;;3.30;1.88;;;27.20;80.90;;;;;;6228666;23;20018;-72
2022/10/16 14:51:45;;;;;;;3.08;1.30;;;27.30;81.40;;;;;;6229772;23;20000;-73
2022/10/16 14:54:16;;;;;;;1.80;1.00;;;27.40;77.20;;;;;;6230023;23;20055;-73
2022/10/16 14:56:56;;;;;;;3.00;1.33;;;27.70;78.10;;;;;;6226205;23;20028;-74
2022/10/16 14:59:25;;;;;;;3.70;1.55;;;28.00;78.80;;;;;;6224881;23;20100;-73
2022/10/16 15:01:51;;;;;;;3.28;1.45;;;28.10;79.20;;;;;;6197617;23;20005;-73
2022/10/16 15:04:18;;;;;;;3.75;1.08;;;28.10;80.60;;;;;;6224943;23;20059;-75
2022/10/16 15:06:44;;;;;;;6.30;1.60;;;28.10;79.90;;;;;;6222267;23;20159;-73
2022/10/16 15:09:10;;;;;;;5.50;1.42;;;28.00;76.80;;;;;;6224472;23;20060;-77
2022/10/16 15:11:36;;;;;;;3.33;1.40;;;28.00;75.60;;;;;;6224181;23;20008;-74
2022/10/16 15:14:03;;;;;;;6.22;3.13;;;28.10;76.00;;;;;;6224774;23;19999;-74
2022/10/16 15:16:30;;;;;;;7.15;2.78;;;28.10;76.90;;;;;;6198334;23;20043;-74
2022/10/16 15:18:56;;;;;;;4.30;1.65;;;28.30;78.50;;;;;;6223728;23;20136;-73
2022/10/16 15:21:28;;;;;;;5.57;1.70;;;28.50;78.10;;;;;;6224056;23;20069;-73
2022/10/16 15:23:54;;;;;;;4.40;1.52;;;28.60;78.00;;;;;;6224082;23;20004;-75
2022/10/16 15:26:20;;;;;;;4.53;3.13;;;28.80;77.40;;;;;;6223216;23;20001;-75
2022/10/16 15:28:46;;;;;;;2.65;1.48;;;29.30;77.70;;;;;;6223901;23;20391;-74
2022/10/16 15:31:12;;;;;;;5.10;2.33;;;29.80;74.80;;;;;;6173179;23;20012;-72
2022/10/16 15:33:38;;;;;;;4.93;3.50;;;30.40;75.20;;;;;;6223665;23;20179;-73
2022/10/16 15:36:04;;;;;;;4.10;1.67;;;30.70;73.00;;;;;;6197847;23;20004;-73
2022/10/16 15:38:30;;;;;;;4.57;3.15;;;30.30;73.40;;;;;;6223861;23;19989;-75
2022/10/16 15:40:56;;;;;;;4.35;2.38;;;30.00;74.60;;;;;;6223334;23;20015;-74
2022/10/16 15:43:22;;;;;;;5.13;2.67;;;29.50;76.70;;;;;;6223930;23;20031;-74
2022/10/16 15:46:06;;;;;;;7.82;2.80;;;28.90;75.80;;;;;;6223652;23;19992;-74
2022/10/16 15:48:32;;;;;;;5.07;2.05;;;28.00;77.80;;;;;;6224105;23;20011;-72
2022/10/16 15:50:59;;;;;;;3.90;2.25;;;27.40;80.60;;;;;;6221955;23;20028;-72
2022/10/16 15:53:25;;;;;;;4.75;2.90;;;27.00;84.00;;;;;;6223551;23;20024;-73
2022/10/16 15:55:51;;;;;;;10.70;7.95;;;26.70;85.30;;;;;;6222147;23;20015;-73
2022/10/16 15:58:17;;;;;;;5.75;3.58;;;26.50;85.20;;;;;;6223804;23;20024;-73
2022/10/16 16:00:55;;;;;;;4.05;2.25;;;26.30;86.00;;;;;;6197566;23;19992;-75
2022/10/16 16:03:21;;;;;;;4.28;1.92;;;26.00;84.20;;;;;;6223165;23;20008;-74
2022/10/16 16:05:47;;;;;;;3.63;1.85;;;25.70;85.10;;;;;;6220923;23;20063;-70
2022/10/16 16:08:13;;;;;;;6.20;2.35;;;25.30;88.60;;;;;;6222834;23;19997;-76
2022/10/16 16:10:38;;;;;;;7.20;2.53;;;25.10;89.30;;;;;;6222299;23;20039;-73
2022/10/16 16:13:04;;;;;;;10.73;8.88;;;24.80;90.40;;;;;;6195622;23;20290;-75
2022/10/16 16:15:33;;;;;;;8.95;4.55;;;24.70;91.00;;;;;;6221526;23;20097;-73
2022/10/16 16:18:00;;;;;;;;;;;24.50;90.90;;;;;;6220846;23;20000;-73
2022/10/16 16:20:25;;;;;;;5.25;2.88;;;24.20;91.20;;;;;;6222517;23;19903;-73
2022/10/16 16:22:51;;;;;;;6.55;2.78;;;23.80;91.80;;;;;;6195114;23;20042;-70
2022/10/16 16:25:17;;;;;;;5.38;3.53;;;23.50;92.20;;;;;;6222093;23;20008;-71
2022/10/16 16:27:44;;;;;;;6.80;3.00;;;23.20;92.80;;;;;;6221849;23;20143;-71
2022/10/16 16:30:11;;;;;;;4.13;3.03;;;22.90;93.30;;;;;;6222369;23;19989;-70
2022/10/16 16:32:37;;;;;;;6.45;3.20;;;22.70;93.80;;;;;;6222508;23;20294;-70
2022/10/16 16:35:03;;;;;;;5.90;3.30;;;22.40;94.10;;;;;;6221667;23;19995;-70
2022/10/16 16:37:32;;;;;;;5.35;3.28;;;22.30;96.40;;;;;;6222204;23;20059;-70
2022/10/16 16:39:58;;;;;;;6.40;3.47;;;22.20;96.30;;;;;;6221263;23;20162;-72
2022/10/16 16:42:27;;;;;;;4.80;3.15;;;22.20;95.70;;;;;;6221769;23;20005;-70
2022/10/16 16:44:53;;;;;;;8.82;4.88;;;22.10;95.90;;;;;;6219690;23;20000;-69
2022/10/16 16:47:19;;;;;;;11.40;4.60;;;21.90;96.50;;;;;;6219897;23;20020;-70
2022/10/16 16:49:46;;;;;;;7.80;4.70;;;21.90;96.30;;;;;;6220127;23;20000;-70
2022/10/16 16:52:12;;;;;;;9.13;4.47;;;21.80;96.00;;;;;;6219048;23;20087;-70
2022/10/16 16:54:38;;;;;;;8.07;3.72;;;21.60;96.30;;;;;;6250717;23;20011;-70
2022/10/16 16:57:04;;;;;;;8.73;3.63;;;21.50;96.90;;;;;;6250075;23;19984;-70
2022/10/16 16:59:32;;;;;;;7.97;4.10;;;21.30;97.20;;;;;;6251701;23;20001;-70
2022/10/16 17:01:59;;;;;;;10.07;5.40;;;21.20;98.30;;;;;;6240282;23;225726;-72
2022/10/16 17:04:25;;;;;;;6.75;3.95;;;21.10;99.30;;;;;;6251708;23;20000;-71
2022/10/16 17:06:53;;;;;;;11.48;8.20;;;21.10;99.10;;;;;;6252175;23;20064;-73
2022/10/16 17:09:19;;;;;;;15.55;10.05;;;21.00;98.50;;;;;;6252474;23;20004;-73
2022/10/16 17:11:45;;;;;;;17.58;12.02;;;20.90;99.10;;;;;;6252060;23;20230;-70
2022/10/16 17:14:11;;;;;;;15.65;9.95;;;20.80;99.90;;;;;;6252351;23;20007;-71
2022/10/16 17:16:38;;;;;;;11.73;8.57;;;20.70;99.90;;;;;;6251923;23;20055;-71
2022/10/16 17:19:15;;;;;;;10.73;6.22;;;20.60;99.90;;;;;;6251727;23;20309;-71
2022/10/16 17:21:51;;;;;;;7.40;4.82;;;20.50;99.90;;;;;;6250534;23;20015;-72
2022/10/16 17:24:18;;;;;;;8.50;5.03;;;20.40;99.90;;;;;;6225449;23;20271;-72
2022/10/16 17:26:49;;;;;;;9.93;5.25;;;20.30;99.90;;;;;;6252351;23;20231;-72
2022/10/16 17:29:17;;;;;;;;;;;20.20;99.90;;;;;;6253074;23;20007;-74
2022/10/16 17:31:43;;;;;;;8.32;4.78;;;20.10;99.90;;;;;;6251216;23;19899;-71
2022/10/16 17:34:15;;;;;;;9.70;4.82;;;20.00;99.90;;;;;;6252971;23;20011;-74
2022/10/16 17:36:50;;;;;;;11.13;4.70;;;19.90;99.90;;;;;;6253113;23;20162;-72
2022/10/16 17:39:16;;;;;;;8.15;4.70;;;19.80;99.90;;;;;;6252539;23;20015;-71
2022/10/16 17:41:44;;;;;;;11.25;5.32;;;19.80;99.90;;;;;;6251271;23;19999;-72
2022/10/16 17:44:12;;;;;;;10.60;4.88;;;19.70;99.90;;;;;;6252487;23;20051;-71
2022/10/16 17:46:38;;;;;;;10.40;4.47;;;19.60;99.90;;;;;;6252735;23;20152;-71
2022/10/16 17:49:03;;;;;;;15.68;5.38;;;19.60;99.90;;;;;;6252020;23;20056;-72
2022/10/16 17:51:31;;;;;;;11.23;6.45;;;19.50;99.90;;;;;;6251969;23;20000;-74
2022/10/16 17:53:59;;;;;;;11.07;6.57;;;19.40;99.90;;;;;;6251524;23;20010;-71
2022/10/16 17:56:26;;;;;;;9.68;6.15;;;19.30;99.90;;;;;;6252165;23;20000;-71
2022/10/16 17:58:54;;;;;;;11.10;5.95;;;19.30;99.90;;;;;;6224978;23;19991;-71
2022/10/16 18:01:27;;;;;;;9.40;5.25;;;19.20;99.90;;;;;;6252035;23;20016;-71
2022/10/16 18:04:06;;;;;;;9.82;5.60;;;19.10;99.90;;;;;;6251564;23;20008;-73
2022/10/16 18:06:32;;;;;;;14.93;6.50;;;19.00;99.90;;;;;;6252087;23;20027;-73
2022/10/16 18:08:58;;;;;;;10.70;6.22;;;18.90;99.90;;;;;;6251647;23;20036;-71
2022/10/16 18:11:25;;;;;;;9.63;5.38;;;18.80;99.90;;;;;;6252608;23;20004;-73
2022/10/16 18:13:53;;;;;;;10.57;6.38;;;18.70;99.90;;;;;;6252415;23;20415;-73
2022/10/16 18:16:19;;;;;;;11.40;5.90;;;18.60;99.90;;;;;;6254684;23;19988;-71